createdAt,value
2022-09-01T00:00:21.504Z,32.70
2022-09-01T00:01:21.413Z,33.30
2022-09-01T00:02:21.489Z,38.40
2022-09-01T00:03:21.391Z,34.30
2022-09-01T00:04:21.492Z,33.50
2022-09-01T00:05:21.391Z,32.50
2022-09-01T00:06:21.405Z,31.90
2022-09-01T00:07:21.400Z,33.20
2022-09-01T00:08:21.459Z,33.20
2022-09-01T00:09:21.324Z,33.70
2022-09-01T00:10:21.359Z,32.50
2022-09-01T00:11:21.301Z,34.70
2022-09-01T00:12:21.348Z,35.10
2022-09-01T00:13:21.288Z,31.00
2022-09-01T00:14:29.881Z,31.20
2022-09-01T00:15:22.280Z,31.20
2022-09-01T00:16:21.383Z,36.90
2022-09-01T00:17:21.236Z,30.80
2022-09-01T00:18:21.400Z,34.70
2022-09-01T00:19:21.231Z,34.80
2022-09-01T00:20:21.237Z,35.60
2022-09-01T00:21:21.189Z,30.30
2022-09-01T00:22:21.197Z,30.00
2022-09-01T00:23:21.175Z,30.60
2022-09-01T00:24:21.180Z,30.80
2022-09-01T00:25:21.167Z,29.10
2022-09-01T00:26:21.135Z,29.90
2022-09-01T00:27:21.127Z,29.40
2022-09-01T00:28:22.111Z,30.70
2022-09-01T00:29:22.115Z,33.30
2022-09-01T00:30:21.196Z,32.50
2022-09-01T00:31:21.204Z,31.30
2022-09-01T00:32:21.068Z,31.50
2022-09-01T00:33:21.131Z,28.80
2022-09-01T00:34:21.059Z,30.40
2022-09-01T00:35:21.083Z,36.80
2022-09-01T00:36:21.080Z,33.70
2022-09-01T00:37:21.010Z,31.20
2022-09-01T00:38:21.071Z,30.40
2022-09-01T00:39:20.996Z,32.50
2022-09-01T00:40:21.021Z,31.90
2022-09-01T00:41:21.019Z,31.20
2022-09-01T00:42:21.011Z,33.10
2022-09-01T00:43:20.944Z,32.00
2022-09-01T00:44:20.980Z,31.10
2022-09-01T00:45:20.924Z,32.30
2022-09-01T00:46:20.965Z,30.60
2022-09-01T00:47:20.910Z,31.70
2022-09-01T00:48:21.082Z,30.60
2022-09-01T00:49:20.874Z,30.50
2022-09-01T00:50:20.875Z,29.90
2022-09-01T00:51:20.888Z,31.70
2022-09-01T00:52:20.890Z,28.50
2022-09-01T00:53:20.868Z,29.90
2022-09-01T00:54:20.873Z,31.70
2022-09-01T00:55:20.808Z,30.80
2022-09-01T00:56:20.799Z,29.30
2022-09-01T00:57:20.798Z,30.40
2022-09-01T00:58:21.170Z,31.70
2022-09-01T00:59:20.771Z,29.80
2022-09-01T01:00:20.816Z,31.00
2022-09-01T01:01:20.817Z,30.40
2022-09-01T01:02:20.790Z,30.20
2022-09-01T01:03:20.760Z,32.50
2022-09-01T01:04:20.717Z,30.90
2022-09-01T01:05:20.713Z,28.40
2022-09-01T01:06:20.744Z,29.20
2022-09-01T01:07:20.685Z,29.20
2022-09-01T01:08:20.879Z,33.30
2022-09-01T01:09:20.652Z,31.70
2022-09-01T01:10:20.660Z,31.00
2022-09-01T01:11:20.632Z,30.20
2022-09-01T01:12:20.716Z,31.50
2022-09-01T01:13:20.607Z,29.40
2022-09-01T01:14:20.609Z,28.70
2022-09-01T01:15:20.589Z,32.60
2022-09-01T01:16:20.663Z,29.90
2022-09-01T01:17:20.593Z,29.60
2022-09-01T01:18:23.111Z,28.30
2022-09-01T01:19:20.538Z,28.30
2022-09-01T01:20:20.570Z,27.90
2022-09-01T01:21:20.528Z,29.40
2022-09-01T01:22:20.526Z,28.50
2022-09-01T01:23:20.493Z,28.50
2022-09-01T01:24:20.540Z,29.40
2022-09-01T01:25:20.511Z,28.60
2022-09-01T01:26:20.460Z,33.90
2022-09-01T01:27:20.454Z,29.70
2022-09-01T01:28:20.738Z,28.20
2022-09-01T01:29:20.427Z,28.10
2022-09-01T01:30:20.451Z,31.20
2022-09-01T01:31:20.531Z,29.10
2022-09-01T01:32:20.426Z,28.80
2022-09-01T01:33:20.406Z,28.50
2022-09-01T01:34:20.369Z,29.30
2022-09-01T01:35:20.364Z,29.40
2022-09-01T01:36:20.347Z,30.00
2022-09-01T01:37:20.364Z,31.00
2022-09-01T01:38:20.620Z,30.20
2022-09-01T01:39:20.344Z,31.10
2022-09-01T01:40:20.430Z,29.00
2022-09-01T01:41:20.304Z,30.60
2022-09-01T01:42:20.286Z,28.40
2022-09-01T01:43:20.335Z,27.60
2022-09-01T01:44:20.263Z,28.10
2022-09-01T01:45:20.245Z,33.40
2022-09-01T01:46:20.711Z,32.30
2022-09-01T01:47:20.223Z,34.30
2022-09-01T01:48:20.346Z,34.60
2022-09-01T01:49:20.236Z,29.80
2022-09-01T01:50:20.209Z,28.50
2022-09-01T01:51:20.180Z,31.20
2022-09-01T01:52:20.168Z,29.70
2022-09-01T01:53:21.188Z,29.00
2022-09-01T01:54:20.182Z,32.30
2022-09-01T01:55:20.147Z,30.80
2022-09-01T01:56:20.158Z,30.30
2022-09-01T01:57:20.111Z,34.30
2022-09-01T01:58:20.389Z,29.90
2022-09-01T01:59:20.129Z,30.20
2022-09-01T02:00:30.128Z,31.30
2022-09-01T02:01:21.179Z,30.40
2022-09-01T02:02:20.190Z,33.70
2022-09-01T02:03:20.051Z,31.40
2022-09-01T02:04:20.046Z,32.80
2022-09-01T02:05:20.040Z,34.80
2022-09-01T02:06:20.020Z,31.90
2022-09-01T02:07:20.013Z,30.40
2022-09-01T02:08:20.250Z,32.30
2022-09-01T02:09:20.002Z,36.40
2022-09-01T02:10:19.964Z,33.60
2022-09-01T02:11:19.954Z,31.90
2022-09-01T02:12:19.946Z,34.60
2022-09-01T02:13:19.953Z,32.20
2022-09-01T02:14:19.956Z,29.40
2022-09-01T02:15:19.927Z,33.50
2022-09-01T02:16:19.938Z,32.40
2022-09-01T02:17:19.886Z,32.20
2022-09-01T02:18:20.137Z,32.40
2022-09-01T02:19:19.901Z,31.60
2022-09-01T02:20:19.913Z,33.10
2022-09-01T02:21:19.846Z,33.90
2022-09-01T02:22:19.854Z,34.80
2022-09-01T02:23:19.825Z,31.80
2022-09-01T02:24:19.833Z,33.80
2022-09-01T02:25:19.795Z,32.50
2022-09-01T02:26:19.839Z,32.20
2022-09-01T02:27:19.773Z,32.80
2022-09-01T02:28:19.958Z,34.80
2022-09-01T02:29:19.787Z,35.30
2022-09-01T02:30:19.757Z,33.00
2022-09-01T02:31:19.728Z,34.60
2022-09-01T02:32:19.818Z,34.20
2022-09-01T02:33:19.713Z,34.00
2022-09-01T02:34:19.695Z,35.40
2022-09-01T02:35:19.693Z,34.00
2022-09-01T02:36:19.830Z,32.10
2022-09-01T02:37:19.673Z,32.80
2022-09-01T02:38:19.869Z,34.10
2022-09-01T02:39:19.653Z,34.30
2022-09-01T02:40:19.674Z,36.80
2022-09-01T02:41:19.638Z,36.40
2022-09-01T02:42:19.648Z,34.40
2022-09-01T02:43:19.604Z,35.00
2022-09-01T02:44:19.612Z,34.30
2022-09-01T02:45:19.571Z,33.90
2022-09-01T02:46:19.627Z,36.90
2022-09-01T02:47:19.583Z,32.10
2022-09-01T02:48:19.705Z,35.20
2022-09-01T02:49:19.529Z,33.40
2022-09-01T02:50:19.555Z,31.70
2022-09-01T02:51:19.538Z,33.00
2022-09-01T02:52:19.516Z,32.20
2022-09-01T02:53:19.488Z,30.60
2022-09-01T02:54:19.475Z,31.90
2022-09-01T02:55:19.459Z,31.10
2022-09-01T02:56:19.495Z,33.10
2022-09-01T02:57:19.468Z,34.20
2022-09-01T02:58:19.629Z,34.90
2022-09-01T02:59:19.416Z,34.80
2022-09-01T03:00:19.415Z,31.40
2022-09-01T03:01:19.502Z,31.40
2022-09-01T03:02:19.465Z,33.70
2022-09-01T03:03:19.382Z,33.40
2022-09-01T03:04:19.438Z,31.90
2022-09-01T03:05:19.348Z,32.00
2022-09-01T03:06:19.354Z,31.90
2022-09-01T03:07:19.367Z,34.00
2022-09-01T03:08:19.504Z,32.80
2022-09-01T03:09:19.313Z,30.90
2022-09-01T03:10:19.296Z,31.20
2022-09-01T03:11:20.313Z,31.70
2022-09-01T03:12:19.272Z,30.70
2022-09-01T03:13:19.280Z,32.00
2022-09-01T03:14:19.278Z,31.10
2022-09-01T03:15:19.248Z,32.90
2022-09-01T03:16:19.298Z,32.60
2022-09-01T03:17:19.223Z,34.40
2022-09-01T03:18:19.428Z,33.40
2022-09-01T03:19:19.236Z,33.70
2022-09-01T03:20:19.281Z,33.70
2022-09-01T03:21:19.192Z,33.60
2022-09-01T03:22:19.162Z,34.10
2022-09-01T03:23:19.541Z,34.70
2022-09-01T03:24:19.219Z,33.10
2022-09-01T03:25:19.157Z,33.50
2022-09-01T03:26:19.131Z,35.00
2022-09-01T03:27:19.143Z,34.10
2022-09-01T03:28:19.332Z,34.00
2022-09-01T03:29:19.125Z,36.10
2022-09-01T03:30:19.084Z,33.80
2022-09-01T03:31:19.087Z,33.00
2022-09-01T03:32:19.056Z,33.80
2022-09-01T03:33:19.089Z,32.80
2022-09-01T03:34:19.042Z,36.40
2022-09-01T03:35:19.042Z,31.70
2022-09-01T03:36:19.056Z,30.20
2022-09-01T03:37:19.001Z,35.20
2022-09-01T03:38:19.155Z,33.50
2022-09-01T03:39:19.048Z,31.40
2022-09-01T03:40:19.029Z,30.70
2022-09-01T03:41:18.953Z,31.00
2022-09-01T03:42:18.967Z,30.80
2022-09-01T03:43:18.941Z,31.30
2022-09-01T03:44:18.916Z,31.70
2022-09-01T03:45:18.980Z,33.00
2022-09-01T03:46:18.942Z,34.60
2022-09-01T03:47:18.899Z,31.60
2022-09-01T03:48:19.119Z,34.30
2022-09-01T03:49:18.879Z,32.80
2022-09-01T03:50:18.886Z,32.10
2022-09-01T03:51:18.885Z,33.20
2022-09-01T03:52:18.855Z,35.20
2022-09-01T03:53:18.828Z,34.40
2022-09-01T03:54:18.810Z,35.20
2022-09-01T03:55:18.851Z,34.20
2022-09-01T03:56:18.779Z,33.00
2022-09-01T03:57:18.821Z,34.80
2022-09-01T03:58:18.759Z,33.00
2022-09-01T03:59:18.744Z,33.60
2022-09-01T04:00:18.751Z,35.90
2022-09-01T04:01:18.866Z,36.90
2022-09-01T04:02:18.820Z,37.20
2022-09-01T04:03:18.769Z,35.10
2022-09-01T04:04:19.701Z,36.70
2022-09-01T04:05:18.682Z,36.00
2022-09-01T04:06:18.688Z,37.10
2022-09-01T04:07:19.161Z,35.80
2022-09-01T04:08:18.759Z,38.00
2022-09-01T04:09:18.707Z,37.00
2022-09-01T04:10:18.637Z,35.20
2022-09-01T04:11:18.780Z,34.80
2022-09-01T04:12:18.629Z,35.20
2022-09-01T04:13:18.587Z,33.20
2022-09-01T04:14:18.600Z,35.90
2022-09-01T04:15:18.599Z,36.60
2022-09-01T04:16:18.661Z,34.30
2022-09-01T04:17:18.562Z,35.50
2022-09-01T04:18:18.667Z,35.40
2022-09-01T04:19:18.572Z,32.40
2022-09-01T04:20:18.508Z,34.40
2022-09-01T04:21:18.510Z,35.90
2022-09-01T04:22:18.518Z,33.30
2022-09-01T04:23:18.502Z,32.00
2022-09-01T04:24:18.506Z,33.20
2022-09-01T04:25:18.453Z,32.00
2022-09-01T04:26:18.440Z,32.80
2022-09-01T04:27:18.520Z,32.30
2022-09-01T04:28:18.582Z,32.20
2022-09-01T04:29:18.436Z,35.30
2022-09-01T04:30:18.395Z,35.60
2022-09-01T04:31:18.494Z,32.80
2022-09-01T04:32:18.383Z,32.60
2022-09-01T04:33:18.364Z,31.20
2022-09-01T04:34:18.410Z,32.20
2022-09-01T04:35:18.380Z,32.30
2022-09-01T04:36:18.330Z,31.50
2022-09-01T04:37:18.383Z,33.20
2022-09-01T04:38:18.466Z,36.20
2022-09-01T04:39:18.303Z,32.60
2022-09-01T04:40:18.368Z,32.70
2022-09-01T04:41:18.275Z,33.40
2022-09-01T04:42:18.264Z,37.10
2022-09-01T04:43:18.290Z,31.10
2022-09-01T04:44:18.255Z,31.70
2022-09-01T04:45:20.698Z,36.60
2022-09-01T04:46:18.330Z,31.90
2022-09-01T04:47:18.245Z,33.30
2022-09-01T04:48:18.246Z,34.80
2022-09-01T04:49:18.188Z,34.90
2022-09-01T04:50:18.245Z,32.90
2022-09-01T04:51:18.178Z,33.20
2022-09-01T04:52:18.204Z,33.10
2022-09-01T04:53:18.180Z,31.20
2022-09-01T04:54:18.128Z,29.10
2022-09-01T04:55:18.338Z,30.00
2022-09-01T04:56:18.142Z,29.00
2022-09-01T04:57:18.103Z,30.60
2022-09-01T04:58:18.152Z,29.70
2022-09-01T04:59:18.082Z,31.10
2022-09-01T05:00:18.059Z,31.80
2022-09-01T05:01:18.185Z,32.50
2022-09-01T05:02:18.118Z,30.70
2022-09-01T05:03:18.041Z,31.40
2022-09-01T05:04:18.016Z,31.70
2022-09-01T05:05:18.056Z,32.10
2022-09-01T05:06:17.998Z,33.80
2022-09-01T05:07:18.017Z,32.00
2022-09-01T05:08:23.379Z,32.10
2022-09-01T05:09:18.970Z,30.30
2022-09-01T05:10:17.954Z,30.40
2022-09-01T05:11:17.999Z,31.10
2022-09-01T05:12:17.938Z,32.30
2022-09-01T05:13:17.952Z,30.10
2022-09-01T05:14:17.911Z,30.20
2022-09-01T05:15:17.892Z,30.60
2022-09-01T05:16:21.489Z,28.30
2022-09-01T05:17:18.907Z,30.60
2022-09-01T05:18:17.886Z,29.90
2022-09-01T05:19:17.858Z,29.90
2022-09-01T05:20:17.856Z,33.10
2022-09-01T05:21:17.871Z,32.10
2022-09-01T05:22:25.757Z,29.60
2022-09-01T05:23:17.845Z,30.40
2022-09-01T05:24:17.822Z,30.60
2022-09-01T05:25:17.804Z,30.80
2022-09-01T05:26:17.769Z,31.10
2022-09-01T05:27:17.803Z,32.60
2022-09-01T05:28:17.862Z,33.30
2022-09-01T05:29:17.778Z,32.00
2022-09-01T05:30:17.769Z,29.40
2022-09-01T05:31:17.753Z,31.80
2022-09-01T05:32:17.707Z,31.60
2022-09-01T05:33:21.650Z,33.40
2022-09-01T05:34:17.684Z,30.20
2022-09-01T05:35:17.699Z,32.10
2022-09-01T05:36:17.668Z,34.20
2022-09-01T05:37:17.661Z,33.30
2022-09-01T05:38:17.634Z,34.80
2022-09-01T05:39:17.720Z,31.00
2022-09-01T05:40:17.671Z,29.90
2022-09-01T05:41:17.602Z,30.10
2022-09-01T05:42:17.605Z,30.30
2022-09-01T05:43:17.578Z,30.20
2022-09-01T05:44:17.572Z,31.30
2022-09-01T05:45:17.580Z,31.80
2022-09-01T05:46:17.625Z,37.40
2022-09-01T05:47:21.055Z,30.30
2022-09-01T05:48:17.536Z,32.40
2022-09-01T05:49:17.513Z,30.50
2022-09-01T05:50:17.514Z,29.30
2022-09-01T05:51:40.219Z,31.70
2022-09-01T05:52:19.154Z,32.80
2022-09-01T05:53:17.476Z,29.00
2022-09-01T05:54:17.475Z,31.00
2022-09-01T05:55:17.446Z,30.90
2022-09-01T05:56:17.436Z,31.80
2022-09-01T05:57:33.744Z,30.90
2022-09-01T05:58:18.605Z,29.10
2022-09-01T05:59:25.894Z,27.50
2022-09-01T06:00:18.404Z,29.00
2022-09-01T06:01:17.383Z,28.50
2022-09-01T06:02:17.529Z,28.00
2022-09-01T06:03:17.571Z,28.00
2022-09-01T06:04:17.347Z,28.20
2022-09-01T06:05:17.363Z,26.60
2022-09-01T06:06:17.326Z,29.30
2022-09-01T06:07:17.321Z,29.10
2022-09-01T06:08:17.300Z,27.10
2022-09-01T06:09:17.304Z,28.20
2022-09-01T06:10:17.307Z,27.20
2022-09-01T06:11:17.293Z,28.10
2022-09-01T06:12:18.160Z,27.90
2022-09-01T06:13:17.328Z,28.20
2022-09-01T06:14:17.723Z,27.90
2022-09-01T06:15:17.222Z,27.20
2022-09-01T06:16:17.258Z,28.10
2022-09-01T06:17:17.232Z,28.10
2022-09-01T06:18:17.192Z,29.10
2022-09-01T06:19:17.189Z,26.90
2022-09-01T06:20:17.185Z,26.10
2022-09-01T06:21:17.190Z,27.00
2022-09-01T06:22:17.160Z,26.80
2022-09-01T06:23:17.187Z,26.50
2022-09-01T06:24:17.133Z,25.40
2022-09-01T06:25:17.223Z,26.00
2022-09-01T06:26:17.106Z,27.60
2022-09-01T06:27:17.123Z,26.40
2022-09-01T06:28:17.101Z,26.00
2022-09-01T06:29:17.065Z,26.40
2022-09-01T06:30:22.583Z,25.50
2022-09-01T06:31:18.104Z,26.00
2022-09-01T06:32:17.032Z,25.60
2022-09-01T06:33:17.076Z,25.50
2022-09-01T06:34:17.007Z,25.80
2022-09-01T06:35:17.003Z,26.00
2022-09-01T06:36:16.984Z,25.70
2022-09-01T06:37:16.988Z,27.30
2022-09-01T06:38:16.965Z,26.70
2022-09-01T06:39:16.983Z,25.10
2022-09-01T06:40:17.021Z,24.50
2022-09-01T06:41:16.953Z,26.50
2022-09-01T06:42:16.930Z,25.00
2022-09-01T06:43:16.951Z,24.60
2022-09-01T06:44:16.936Z,23.60
2022-09-01T06:45:16.914Z,24.20
2022-09-01T06:46:16.902Z,26.30
2022-09-01T06:47:16.884Z,23.80
2022-09-01T06:48:17.689Z,25.60
2022-09-01T06:49:16.841Z,24.90
2022-09-01T06:51:15.472Z,23.50
2022-09-01T06:51:20.532Z,24.40
2022-09-01T06:52:16.818Z,23.30
2022-09-01T06:53:32.888Z,22.20
2022-09-01T06:54:20.773Z,22.00
2022-09-01T06:55:16.813Z,22.00
2022-09-01T06:56:16.782Z,22.30
2022-09-01T06:58:17.805Z,21.30
2022-09-01T06:59:16.729Z,22.10
2022-09-01T07:00:16.735Z,22.10
2022-09-01T07:01:16.786Z,21.20
2022-09-01T07:02:17.885Z,20.60
2022-09-01T07:03:16.772Z,20.30
2022-09-01T07:04:16.696Z,20.10
2022-09-01T07:08:17.852Z,20.80
2022-09-01T07:09:20.298Z,19.90
2022-09-01T07:10:21.090Z,19.90
2022-09-01T07:11:22.022Z,20.20
2022-09-01T07:13:17.575Z,19.40
2022-09-01T07:14:16.592Z,19.70
2022-09-01T07:16:36.333Z,19.80
2022-09-01T07:17:24.823Z,20.60
2022-09-01T07:18:17.581Z,19.20
2022-09-01T07:19:16.518Z,19.50
2022-09-01T07:20:24.643Z,18.80
2022-09-01T07:23:17.483Z,17.40
2022-09-01T07:24:16.467Z,17.70
2022-09-01T07:25:16.816Z,16.70
2022-09-01T07:26:24.566Z,16.60
2022-09-01T07:27:17.429Z,16.60
2022-09-01T07:28:16.445Z,16.60
2022-09-01T07:29:16.398Z,16.40
2022-09-01T07:30:16.404Z,16.80
2022-09-01T07:35:17.355Z,16.60
2022-09-01T07:36:31.696Z,17.60
2022-09-01T07:38:47.774Z,17.20
2022-09-01T07:43:17.237Z,16.90
2022-09-01T07:44:16.225Z,17.30
2022-09-01T07:45:31.603Z,16.60
2022-09-01T07:47:51.926Z,16.50
2022-09-01T07:48:36.076Z,16.10
2022-09-01T07:49:52.410Z,16.60
2022-09-01T07:52:17.164Z,16.20
2022-09-01T07:53:17.172Z,15.30
2022-09-01T07:54:16.114Z,16.10
2022-09-01T07:55:16.121Z,15.70
2022-09-01T07:56:16.103Z,15.80
2022-09-01T07:57:16.105Z,14.90
2022-09-01T07:58:16.106Z,16.10
2022-09-01T07:59:16.091Z,14.90
2022-09-01T08:00:16.051Z,14.90
2022-09-01T08:01:16.053Z,14.80
2022-09-01T08:02:16.138Z,14.80
2022-09-01T08:03:16.083Z,14.60
2022-09-01T08:04:16.019Z,14.00
2022-09-01T08:05:16.024Z,14.30
2022-09-01T08:06:15.990Z,14.90
2022-09-01T08:07:16.264Z,13.90
2022-09-01T08:08:19.412Z,14.30
2022-09-01T08:09:32.759Z,14.50
2022-09-01T08:10:20.161Z,14.80
2022-09-01T08:11:15.927Z,15.00
2022-09-01T08:12:15.964Z,14.80
2022-09-01T08:13:15.909Z,15.10
2022-09-01T08:14:18.209Z,15.10
2022-09-01T08:16:05.953Z,14.90
2022-09-01T08:16:18.212Z,14.50
2022-09-01T08:17:17.739Z,14.10
2022-09-01T08:18:16.903Z,13.40
2022-09-01T08:19:16.975Z,14.20
2022-09-01T08:20:15.843Z,14.10
2022-09-01T08:21:15.852Z,13.00
2022-09-01T08:22:15.825Z,13.40
2022-09-01T08:23:15.829Z,13.30
2022-09-01T08:24:15.782Z,13.90
2022-09-01T08:25:15.815Z,14.20
2022-09-01T08:26:15.759Z,17.40
2022-09-01T08:27:15.806Z,16.90
2022-09-01T08:28:15.736Z,16.60
2022-09-01T08:29:15.774Z,21.10
2022-09-01T08:30:15.716Z,15.80
2022-09-01T08:31:15.754Z,14.60
2022-09-01T08:32:15.699Z,15.30
2022-09-01T08:33:15.720Z,14.20
2022-09-01T08:34:15.715Z,13.60
2022-09-01T08:35:15.671Z,13.60
2022-09-01T08:36:18.907Z,12.90
2022-09-01T08:37:16.667Z,13.70
2022-09-01T08:38:15.673Z,13.70
2022-09-01T08:39:15.706Z,13.40
2022-09-01T08:40:15.670Z,14.30
2022-09-01T08:41:15.592Z,16.80
2022-09-01T08:42:15.587Z,13.80
2022-09-01T08:43:15.769Z,14.20
2022-09-01T08:44:15.579Z,13.30
2022-09-01T08:45:15.608Z,13.90
2022-09-01T08:46:15.631Z,13.70
2022-09-01T08:47:15.778Z,13.50
2022-09-01T08:49:02.664Z,13.60
2022-09-01T08:49:42.987Z,13.60
2022-09-01T08:50:16.540Z,13.50
2022-09-01T08:51:19.974Z,13.30
2022-09-01T08:52:16.475Z,13.70
2022-09-01T08:53:15.459Z,15.40
2022-09-01T08:54:15.472Z,14.40
2022-09-01T08:55:15.450Z,14.00
2022-09-01T08:56:15.438Z,14.30
2022-09-01T08:57:15.475Z,14.10
2022-09-01T08:58:15.404Z,15.40
2022-09-01T08:59:15.434Z,16.10
2022-09-01T09:00:15.492Z,24.90
2022-09-01T09:01:17.464Z,18.70
2022-09-01T09:02:16.490Z,45.80
2022-09-01T09:03:15.486Z,31.60
2022-09-01T09:04:15.337Z,19.80
2022-09-01T09:05:15.825Z,16.40
2022-09-01T09:06:15.317Z,14.80
2022-09-01T09:07:15.327Z,15.00
2022-09-01T09:08:15.296Z,14.80
2022-09-01T09:09:15.328Z,14.70
2022-09-01T09:10:15.272Z,15.00
2022-09-01T09:11:15.274Z,14.60
2022-09-01T09:12:15.255Z,14.30
2022-09-01T09:13:15.261Z,13.90
2022-09-01T09:14:15.703Z,13.70
2022-09-01T09:15:15.241Z,14.10
2022-09-01T09:16:15.233Z,13.50
2022-09-01T09:17:15.195Z,13.30
2022-09-01T09:18:20.139Z,13.90
2022-09-01T09:19:16.358Z,14.10
2022-09-01T09:20:15.169Z,16.80
2022-09-01T09:21:15.210Z,14.20
2022-09-01T09:22:15.159Z,14.30
2022-09-01T09:23:15.166Z,13.80
2022-09-01T09:24:20.791Z,13.60
2022-09-01T09:25:19.383Z,13.60
2022-09-01T09:26:16.677Z,13.60
2022-09-01T09:27:16.398Z,13.10
2022-09-01T09:28:15.084Z,15.00
2022-09-01T09:29:15.065Z,13.70
2022-09-01T09:30:15.113Z,17.90
2022-09-01T09:31:15.078Z,12.60
2022-09-01T09:32:50.387Z,12.70
2022-09-01T09:33:51.389Z,13.50
2022-09-01T09:34:16.009Z,13.50
2022-09-01T09:35:15.009Z,12.80
2022-09-01T09:36:15.001Z,12.80
2022-09-01T09:37:14.980Z,12.00
2022-09-01T09:38:14.986Z,12.50
2022-09-01T09:39:16.559Z,12.10
2022-09-01T09:40:15.241Z,12.50
2022-09-01T09:41:18.230Z,13.10
2022-09-01T09:42:15.211Z,12.20
2022-09-01T09:43:15.527Z,12.50
2022-09-01T09:44:14.892Z,11.80
2022-09-01T09:45:14.912Z,22.00
2022-09-01T09:46:30.048Z,12.30
2022-09-01T09:47:40.349Z,11.80
2022-09-01T09:48:15.875Z,17.80
2022-09-01T09:49:14.834Z,11.40
2022-09-01T09:50:14.825Z,11.30
2022-09-01T09:51:14.840Z,11.40
2022-09-01T09:52:16.451Z,11.10
2022-09-01T09:53:14.809Z,11.60
2022-09-01T09:54:14.788Z,11.70
2022-09-01T09:55:14.768Z,11.40
2022-09-01T09:56:14.804Z,12.30
2022-09-01T09:57:14.763Z,12.20
2022-09-01T09:58:14.751Z,11.50
2022-09-01T09:59:14.723Z,10.90
2022-09-01T10:00:14.758Z,10.80
2022-09-01T10:01:14.789Z,10.60
2022-09-01T10:02:14.716Z,11.20
2022-09-01T10:03:14.811Z,9.10
2022-09-01T10:04:14.840Z,8.30
2022-09-01T10:05:14.659Z,8.80
2022-09-01T10:06:14.668Z,9.00
2022-09-01T10:07:14.634Z,9.10
2022-09-01T10:08:14.638Z,8.40
2022-09-01T10:09:14.635Z,8.40
2022-09-01T10:10:14.619Z,8.20
2022-09-01T10:11:14.631Z,8.00
2022-09-01T10:12:14.591Z,7.50
2022-09-01T10:13:14.766Z,7.40
2022-09-01T10:14:26.108Z,7.10
2022-09-01T10:15:15.577Z,6.80
2022-09-01T10:16:14.635Z,6.90
2022-09-01T10:17:15.887Z,6.70
2022-09-01T10:18:20.521Z,6.20
2022-09-01T10:19:16.292Z,6.30
2022-09-01T10:20:14.492Z,6.00
2022-09-01T10:21:14.514Z,7.20
2022-09-01T10:22:15.250Z,6.00
2022-09-01T10:23:15.335Z,7.50
2022-09-01T10:24:20.536Z,5.80
2022-09-01T10:25:15.455Z,5.40
2022-09-01T10:26:14.431Z,5.40
2022-09-01T10:27:15.410Z,5.10
2022-09-01T10:28:20.912Z,5.30
2022-09-01T10:29:15.862Z,5.90
2022-09-01T10:30:18.757Z,5.40
2022-09-01T10:31:15.451Z,5.60
2022-09-01T10:32:34.650Z,5.40
2022-09-01T10:33:19.858Z,5.00
2022-09-01T10:34:19.262Z,5.00
2022-09-01T10:35:14.550Z,4.70
2022-09-01T10:36:14.324Z,4.50
2022-09-01T10:37:16.142Z,4.60
2022-09-01T10:38:14.296Z,4.70
2022-09-01T10:39:14.281Z,4.60
2022-09-01T10:40:14.849Z,4.70
2022-09-01T10:41:15.842Z,5.10
2022-09-01T10:42:14.266Z,4.90
2022-09-01T10:43:14.271Z,4.70
2022-09-01T10:44:14.233Z,4.70
2022-09-01T10:45:14.230Z,4.20
2022-09-01T10:46:15.667Z,5.70
2022-09-01T10:47:14.509Z,4.70
2022-09-01T10:48:14.817Z,3.70
2022-09-01T10:49:14.366Z,3.90
2022-09-01T10:50:14.200Z,3.80
2022-09-01T10:51:18.507Z,3.70
2022-09-01T10:52:16.219Z,3.80
2022-09-01T10:53:17.282Z,4.00
2022-09-01T10:54:14.143Z,3.90
2022-09-01T10:55:14.113Z,4.20
2022-09-01T10:56:20.142Z,5.70
2022-09-01T10:57:15.107Z,5.10
2022-09-01T10:59:31.068Z,5.00
2022-09-01T10:59:31.567Z,4.50
2022-09-01T11:01:24.879Z,4.60
2022-09-01T11:02:35.919Z,5.10
2022-09-01T11:03:31.413Z,4.50
2022-09-01T11:04:15.098Z,4.50
2022-09-01T11:05:14.116Z,4.70
2022-09-01T11:06:13.989Z,5.10
2022-09-01T11:07:14.285Z,4.40
2022-09-01T11:08:15.634Z,4.60
2022-09-01T11:09:13.939Z,4.30
2022-09-01T11:10:31.454Z,4.60
2022-09-01T11:11:14.946Z,4.20
2022-09-01T11:12:13.924Z,4.40
2022-09-01T11:13:13.960Z,4.80
2022-09-01T11:14:13.887Z,4.10
2022-09-01T11:15:13.874Z,4.40
2022-09-01T11:16:14.119Z,4.70
2022-09-01T11:17:13.934Z,4.50
2022-09-01T11:18:14.635Z,5.10
2022-09-01T11:19:16.154Z,4.10
2022-09-01T11:20:13.857Z,5.10
2022-09-01T11:21:13.806Z,4.10
2022-09-01T11:22:13.814Z,3.90
2022-09-01T11:23:14.903Z,4.10
2022-09-01T11:24:14.115Z,4.10
2022-09-01T11:25:13.877Z,4.10
2022-09-01T11:26:20.900Z,3.80
2022-09-01T11:27:14.746Z,3.80
2022-09-01T11:28:13.730Z,5.60
2022-09-01T11:29:13.734Z,3.60
2022-09-01T11:30:13.707Z,3.70
2022-09-01T11:31:13.744Z,4.60
2022-09-01T11:32:13.743Z,4.30
2022-09-01T11:33:13.683Z,3.90
2022-09-01T11:34:13.665Z,4.70
2022-09-01T11:35:13.661Z,4.00
2022-09-01T11:36:13.639Z,4.40
2022-09-01T11:37:13.650Z,4.00
2022-09-01T11:38:13.653Z,4.00
2022-09-01T11:39:13.624Z,4.10
2022-09-01T11:40:13.658Z,4.30
2022-09-01T11:41:13.610Z,3.80
2022-09-01T11:42:13.616Z,4.00
2022-09-01T11:43:13.586Z,4.00
2022-09-01T11:44:13.583Z,4.20
2022-09-01T11:45:20.562Z,4.30
2022-09-01T11:46:14.635Z,4.50
2022-09-01T11:47:14.575Z,4.30
2022-09-01T11:48:13.547Z,4.70
2022-09-01T11:49:13.493Z,4.10
2022-09-01T11:50:13.508Z,4.10
2022-09-01T11:51:14.718Z,4.70
2022-09-01T11:52:13.473Z,6.50
2022-09-01T11:53:13.478Z,16.30
2022-09-01T11:54:13.440Z,7.10
2022-09-01T11:55:13.497Z,8.80
2022-09-01T11:56:13.435Z,3.60
2022-09-01T11:57:13.438Z,4.00
2022-09-01T11:58:17.608Z,3.80
2022-09-01T11:59:13.489Z,6.20
2022-09-01T12:00:13.374Z,7.30
2022-09-01T12:01:13.359Z,7.80
2022-09-01T12:02:13.489Z,8.80
2022-09-01T12:03:13.510Z,4.40
2022-09-01T12:04:13.375Z,3.90
2022-09-01T12:05:13.355Z,5.90
2022-09-01T12:06:13.303Z,68.20
2022-09-01T12:07:13.300Z,17.20
2022-09-01T12:08:13.316Z,5.10
2022-09-01T12:09:13.281Z,3.30
2022-09-01T12:10:13.319Z,3.60
2022-09-01T12:11:13.292Z,3.10
2022-09-01T12:12:13.301Z,3.90
2022-09-01T12:13:13.256Z,3.40
2022-09-01T12:14:13.242Z,3.30
2022-09-01T12:15:13.789Z,3.20
2022-09-01T12:16:20.428Z,3.60
2022-09-01T12:17:14.268Z,3.50
2022-09-01T12:18:13.171Z,3.40
2022-09-01T12:19:13.186Z,3.80
2022-09-01T12:20:13.159Z,4.00
2022-09-01T12:21:13.159Z,4.70
2022-09-01T12:22:13.210Z,5.00
2022-09-01T12:23:13.161Z,3.80
2022-09-01T12:24:13.110Z,3.70
2022-09-01T12:25:13.092Z,4.70
2022-09-01T12:26:13.103Z,3.50
2022-09-01T12:27:13.091Z,3.30
2022-09-01T12:28:13.059Z,3.80
2022-09-01T12:29:13.071Z,4.80
2022-09-01T12:30:13.050Z,3.80
2022-09-01T12:31:13.095Z,3.00
2022-09-01T12:32:13.163Z,3.70
2022-09-01T12:33:28.289Z,4.00
2022-09-01T12:34:13.997Z,3.40
2022-09-01T12:35:12.988Z,4.30
2022-09-01T12:36:12.989Z,3.30
2022-09-01T12:37:13.008Z,3.10
2022-09-01T12:38:13.003Z,3.50
2022-09-01T12:39:12.936Z,3.50
2022-09-01T12:40:12.949Z,4.10
2022-09-01T12:41:12.973Z,3.40
2022-09-01T12:42:12.904Z,3.80
2022-09-01T12:43:12.936Z,6.60
2022-09-01T12:44:12.917Z,5.60
2022-09-01T12:45:12.869Z,2.90
2022-09-01T12:46:12.894Z,3.90
2022-09-01T12:47:12.971Z,5.00
2022-09-01T12:48:12.872Z,3.80
2022-09-01T12:49:12.836Z,5.20
2022-09-01T12:50:12.846Z,8.60
2022-09-01T12:51:12.804Z,3.30
2022-09-01T12:52:14.729Z,3.30
2022-09-01T12:53:12.862Z,2.80
2022-09-01T12:54:12.793Z,3.30
2022-09-01T12:55:13.347Z,3.30
2022-09-01T12:56:12.787Z,3.50
2022-09-01T12:57:12.737Z,3.80
2022-09-01T12:58:12.765Z,4.10
2022-09-01T12:59:15.577Z,4.40
2022-09-01T13:00:12.718Z,3.70
2022-09-01T13:01:16.432Z,2.90
2022-09-01T13:02:12.931Z,3.30
2022-09-01T13:03:12.713Z,3.10
2022-09-01T13:04:12.667Z,3.70
2022-09-01T13:05:12.648Z,4.30
2022-09-01T13:06:12.648Z,3.10
2022-09-01T13:07:12.649Z,3.10
2022-09-01T13:08:12.666Z,3.20
2022-09-01T13:09:12.602Z,3.60
2022-09-01T13:10:12.616Z,3.60
2022-09-01T13:11:12.603Z,3.20
2022-09-01T13:12:12.587Z,3.10
2022-09-01T13:13:12.703Z,2.80
2022-09-01T13:14:12.546Z,3.00
2022-09-01T13:15:15.632Z,3.20
2022-09-01T13:16:13.100Z,2.90
2022-09-01T13:17:14.374Z,3.00
2022-09-01T13:18:12.534Z,3.50
2022-09-01T13:19:12.528Z,3.00